Time;durP1;ratioP1;P1;durP2;ratioP2;P2;SDS_P1;SDS_P2;PMS_P1;PMS_P2;Temp;Humidity;BMP_temperature;BMP_pressure;BME280_temperature;BME280_humidity;BME280_pressure;Samples;Min_cycle;Max_cycle;Signal;HPM_P1;HPM_P2
2024/01/01 00:00:28;;;;;;;20.63;10.43;;;;;;;-146.25;100.00;52575.00;2070062;28;33471;-70
2024/01/01 00:01:42;;;;;;;17.42;10.80;;;;;;;-146.25;100.00;52591.25;2063640;28;20559;-70
2024/01/01 00:02:44;;;;;;;23.50;13.63;;;;;;;-146.25;100.00;52617.59;2080333;28;38069;-70
2024/01/01 00:03:46;;;;;;;22.17;12.98;;;;;;;-146.25;100.00;52577.03;2080299;28;20038;-71
2024/01/01 00:04:48;;;;;;;28.27;13.75;;;;;;;-146.25;100.00;52570.97;2078418;28;36466;-69
2024/01/01 00:05:50;;;;;;;22.70;13.05;;;;;;;-146.25;100.00;52570.97;2079498;28;20053;-70
2024/01/01 00:06:52;;;;;;;22.92;13.40;;;;;;;-146.25;100.00;52583.13;2079527;28;33407;-70
2024/01/01 00:07:54;;;;;;;25.48;13.95;;;;;;;-146.25;100.00;52579.06;2079059;28;39083;-71
2024/01/01 00:08:58;;;;;;;32.95;17.90;;;;;;;-146.25;100.00;52562.84;2078450;28;20034;-71
2024/01/01 00:10:00;;;;;;;23.88;13.60;;;;;;;-146.25;100.00;52558.78;2078994;28;33546;-71
2024/01/01 00:11:04;;;;;;;24.25;13.23;;;;;;;-146.25;100.00;52566.91;2079082;28;34965;-71
2024/01/01 00:12:09;;;;;;;20.25;11.98;;;;;;;-146.25;100.00;52583.13;2069455;28;20041;-70
2024/01/01 00:13:10;;;;;;;19.80;11.50;;;;;;;-146.25;100.00;52648.00;2077833;28;38084;-70
2024/01/01 00:14:12;;;;;;;22.85;12.63;;;;;;;-146.25;100.00;52583.13;2070025;28;33254;-70
2024/01/01 00:15:14;;;;;;;19.13;11.95;;;;;;;-146.25;100.00;52544.59;2070653;28;22244;-70
2024/01/01 00:16:16;;;;;;;19.58;11.10;;;;;;;-146.25;100.00;52595.28;2079538;28;28608;-70
2024/01/01 00:17:21;;;;;;;18.00;9.98;;;;;;;-146.25;100.00;52589.22;2062656;28;21810;-70
2024/01/01 00:18:23;;;;;;;18.85;9.75;;;;;;;-146.25;100.00;52593.25;2068356;28;35429;-70
2024/01/01 00:19:25;;;;;;;16.23;10.02;;;;;;;-146.25;100.00;52560.81;2084691;28;35184;-70
2024/01/01 00:20:27;;;;;;;14.88;9.68;;;;;;;-146.25;100.00;52579.06;2079623;28;32488;-70
2024/01/01 00:21:30;;;;;;;19.08;8.80;;;;;;;-146.25;100.00;52550.69;2078106;28;36359;-70
2024/01/01 00:22:32;;;;;;;17.25;8.07;;;;;;;-146.25;100.00;52587.19;2079333;28;34586;-71
2024/01/01 00:23:36;;;;;;;15.77;8.05;;;;;;;-146.25;100.00;52560.81;2078359;28;32865;-70
2024/01/01 00:24:38;;;;;;;17.33;7.97;;;;;;;-146.25;100.00;52587.19;2079180;28;39280;-70
2024/01/01 00:25:40;;;;;;;14.90;6.22;;;;;;;-146.25;100.00;52587.19;2070660;28;31573;-70
2024/01/01 00:26:41;;;;;;;13.23;6.28;;;;;;;-146.25;100.00;52573.00;2068418;28;38446;-70
2024/01/01 00:27:46;;;;;;;14.23;5.50;;;;;;;-146.25;100.00;52607.47;2070067;28;20038;-70
2024/01/01 00:28:47;;;;;;;9.52;5.10;;;;;;;-146.25;100.00;52583.13;2070707;28;24594;-70
2024/01/01 00:29:49;;;;;;;14.10;4.90;;;;;;;-146.25;100.00;52536.50;2070961;28;27803;-70
2024/01/01 00:30:51;;;;;;;11.93;5.25;;;;;;;-146.25;100.00;52587.19;2079757;28;30528;-70
2024/01/01 00:31:53;;;;;;;10.95;4.82;;;;;;;-146.25;100.00;52611.50;2070899;28;26547;-70
2024/01/01 00:32:54;;;;;;;8.30;3.97;;;;;;;-146.25;100.00;52603.41;2070788;28;20037;-70
2024/01/01 00:33:56;;;;;;;10.13;4.57;;;;;;;-146.25;100.00;52603.41;2077940;28;25422;-69
2024/01/01 00:34:58;;;;;;;10.27;4.13;;;;;;;-146.25;100.00;52595.28;2070584;28;24591;-70
2024/01/01 00:36:00;;;;;;;10.80;4.00;;;;;;;-146.25;100.00;52542.56;2071200;28;22455;-74
2024/01/01 00:37:02;;;;;;;12.02;4.70;;;;;;;-146.25;100.00;52573.00;2077952;28;33939;-71
2024/01/01 00:38:04;;;;;;;11.15;4.22;;;;;;;-146.25;100.00;52583.13;2079582;28;28893;-71
2024/01/01 00:39:06;;;;;;;13.20;4.10;;;;;;;-146.25;100.00;52583.13;2070204;28;20097;-71
2024/01/01 00:40:09;;;;;;;11.70;4.22;;;;;;;-146.25;100.00;52556.75;2070508;28;32277;-69
2024/01/01 00:41:16;;;;;;;9.13;3.50;;;;;;;-146.25;100.00;52585.16;2074780;28;24729;-71
2024/01/01 00:42:18;;;;;;;12.30;3.83;;;;;;;-146.25;100.00;52609.50;2066856;28;24972;-71
2024/01/01 00:43:20;;;;;;;11.10;3.85;;;;;;;-146.25;100.00;52605.44;2079911;28;31324;-71
2024/01/01 00:44:22;;;;;;;9.48;3.50;;;;;;;-146.25;100.00;52564.88;2081100;28;20724;-70
2024/01/01 00:45:23;;;;;;;9.13;4.03;;;;;;;-146.25;100.00;52568.94;2066422;28;28722;-71
2024/01/01 00:46:34;;;;;;;11.27;4.93;;;;;;;-146.25;100.00;52575.00;2072337;28;34322;-70
2024/01/01 00:47:36;;;;;;;13.75;5.15;;;;;;;-146.25;100.00;52591.25;2080263;28;21363;-71
2024/01/01 00:48:38;;;;;;;100.38;56.55;;;;;;;-146.25;100.00;52605.44;2078418;28;20038;-71
2024/01/01 00:49:40;;;;;;;77.63;46.38;;;;;;;-146.25;100.00;52589.22;2088344;28;24650;-71
2024/01/01 00:50:42;;;;;;;93.43;59.00;;;;;;;-146.25;100.00;52591.25;2080377;28;26199;-71
2024/01/01 00:51:43;;;;;;;128.65;80.82;;;;;;;-146.25;100.00;52556.75;2089248;28;20057;-71
2024/01/01 00:52:45;;;;;;;106.07;65.88;;;;;;;-146.25;100.00;52605.44;2080303;28;29087;-71
2024/01/01 00:53:47;;;;;;;56.08;35.13;;;;;;;-146.25;100.00;52603.41;2079441;28;22201;-75
2024/01/01 00:54:49;;;;;;;40.38;24.77;;;;;;;-146.25;100.00;52609.50;2081326;28;20030;-72
2024/01/01 00:55:51;;;;;;;30.08;18.30;;;;;;;-146.25;100.00;52552.72;2078419;28;27123;-72
2024/01/01 00:56:54;;;;;;;38.30;24.73;;;;;;;-146.25;100.00;52583.13;2080262;28;30396;-72
2024/01/01 00:57:56;;;;;;;38.05;23.50;;;;;;;-146.25;100.00;52607.47;2080785;28;34431;-72
2024/01/01 00:59:01;;;;;;;35.85;22.40;;;;;;;-146.25;100.00;52579.06;2080055;28;33307;-72
2024/01/01 01:00:04;;;;;;;28.30;14.43;;;;;;;-146.25;100.00;52575.00;2078428;28;26692;-71
2024/01/01 01:01:07;;;;;;;13.82;6.97;;;;;;;-146.25;100.00;52603.41;2072693;28;20045;-72
2024/01/01 01:02:09;;;;;;;11.48;4.78;;;;;;;-146.25;100.00;52589.22;2071392;28;20047;-71
2024/01/01 01:03:11;;;;;;;11.98;4.18;;;;;;;-146.25;100.00;52577.03;2080434;28;31487;-72
2024/01/01 01:04:13;;;;;;;8.90;3.45;;;;;;;-146.25;100.00;52595.28;2088193;28;31168;-72
2024/01/01 01:05:19;;;;;;;11.98;3.65;;;;;;;-146.25;100.00;52619.63;2066244;28;20077;-72
2024/01/01 01:06:21;;;;;;;12.07;4.30;;;;;;;-146.25;100.00;52583.13;2063850;28;26755;-72
2024/01/01 01:07:25;;;;;;;8.68;3.45;;;;;;;-146.25;100.00;52597.31;2075251;28;27786;-72
2024/01/01 01:08:27;;;;;;;11.23;3.80;;;;;;;-146.25;100.00;52575.00;2080416;28;26272;-72
2024/01/01 01:09:29;;;;;;;10.07;3.42;;;;;;;-146.25;100.00;52589.22;2070943;28;25302;-72
2024/01/01 01:10:30;;;;;;;7.85;3.22;;;;;;;-146.25;100.00;52613.53;2080741;28;27585;-71
2024/01/01 01:11:32;;;;;;;11.27;3.40;;;;;;;-146.25;100.00;52583.13;2080306;28;20041;-72
2024/01/01 01:12:34;;;;;;;12.57;3.65;;;;;;;-146.25;100.00;52564.88;2080519;28;27813;-72
2024/01/01 01:13:36;;;;;;;9.43;3.25;;;;;;;-146.25;100.00;52603.41;2083138;28;25470;-71
2024/01/01 01:14:37;;;;;;;9.18;3.08;;;;;;;-146.25;100.00;52599.34;2084137;28;32385;-72
2024/01/01 01:15:39;;;;;;;11.18;3.38;;;;;;;-146.25;100.00;52613.53;2077656;28;28717;-72
2024/01/01 01:16:41;;;;;;;10.23;3.85;;;;;;;-146.25;100.00;52621.66;2077305;28;20053;-72
2024/01/01 01:17:43;;;;;;;10.30;4.40;;;;;;;-146.25;100.00;52573.00;2075999;28;25424;-72
2024/01/01 01:18:49;;;;;;;12.23;3.83;;;;;;;-146.25;100.00;52593.25;2078306;28;25132;-72
2024/01/01 01:19:51;;;;;;;12.40;4.35;;;;;;;-146.25;100.00;52603.41;2084810;28;28866;-72
2024/01/01 01:20:53;;;;;;;9.75;3.58;;;;;;;-146.25;100.00;52566.91;2074432;28;28316;-71
2024/01/01 01:21:55;;;;;;;8.35;3.55;;;;;;;-146.25;100.00;52599.34;2070675;28;20035;-71
2024/01/01 01:22:58;;;;;;;9.32;3.60;;;;;;;-146.25;100.00;52579.06;2081181;28;20042;-72
2024/01/01 01:24:04;;;;;;;11.40;3.47;;;;;;;-146.25;100.00;52605.44;2083974;28;27139;-72
2024/01/01 01:25:06;;;;;;;12.55;3.58;;;;;;;-146.25;100.00;52566.91;2082797;28;20041;-72
2024/01/01 01:26:08;;;;;;;12.68;3.78;;;;;;;-146.25;100.00;52597.31;2080428;28;27777;-71
2024/01/01 01:27:10;;;;;;;9.02;3.80;;;;;;;-146.25;100.00;52601.38;2070300;28;23657;-72
2024/01/01 01:28:21;;;;;;;10.65;3.63;;;;;;;-146.25;100.00;52579.06;2072358;28;20898;-70
2024/01/01 01:29:24;;;;;;;8.32;3.33;;;;;;;-146.25;100.00;52619.63;2071575;28;24401;-70
2024/01/01 01:30:28;;;;;;;10.20;3.70;;;;;;;-146.25;100.00;52570.97;2075906;28;25701;-70
2024/01/01 01:31:30;;;;;;;11.20;4.07;;;;;;;-146.25;100.00;52575.00;2083479;28;20205;-70
2024/01/01 01:32:32;;;;;;;13.13;4.00;;;;;;;-146.25;100.00;52587.19;2080456;28;25964;-70
2024/01/01 01:33:34;;;;;;;10.95;4.22;;;;;;;-146.25;100.00;52587.19;2077814;28;26138;-69
2024/01/01 01:34:36;;;;;;;9.68;3.55;;;;;;;-146.25;100.00;52591.25;2080264;28;32723;-70
2024/01/01 01:35:37;;;;;;;11.80;3.97;;;;;;;-146.25;100.00;52548.66;2082782;28;20104;-70
2024/01/01 01:36:39;;;;;;;13.80;4.57;;;;;;;-146.25;100.00;52570.97;2086056;28;30177;-70
2024/01/01 01:37:45;;;;;;;9.10;3.88;;;;;;;-146.25;100.00;52603.41;2079859;28;29597;-70
2024/01/01 01:38:47;;;;;;;8.88;4.10;;;;;;;-146.25;100.00;52558.78;2079539;28;32617;-69
2024/01/01 01:39:49;;;;;;;11.40;4.60;;;;;;;-146.25;100.00;52619.63;2084452;28;23398;-70
2024/01/01 01:40:50;;;;;;;11.50;3.97;;;;;;;-146.25;100.00;52603.41;2083187;28;28913;-70
2024/01/01 01:41:52;;;;;;;13.05;4.07;;;;;;;-146.25;100.00;52583.13;2080837;28;27705;-70
2024/01/01 01:42:54;;;;;;;10.90;4.50;;;;;;;-146.25;100.00;52603.41;2079382;28;20980;-69
2024/01/01 01:43:59;;;;;;;13.55;4.25;;;;;;;-146.25;100.00;52609.50;2080665;28;20157;-70
2024/01/01 01:45:00;;;;;;;11.70;4.20;;;;;;;-146.25;100.00;52562.84;2080564;28;20049;-70
2024/01/01 01:46:02;;;;;;;10.75;3.83;;;;;;;-146.25;100.00;52564.88;2080821;28;28196;-70
2024/01/01 01:47:05;;;;;;;12.20;4.10;;;;;;;-146.25;100.00;52550.69;2079815;28;21934;-69
2024/01/01 01:48:11;;;;;;;8.98;4.15;;;;;;;-146.25;100.00;52575.00;2063702;28;29532;-69
2024/01/01 01:49:13;;;;;;;12.27;4.35;;;;;;;-146.25;100.00;52591.25;2073015;28;23609;-69
2024/01/01 01:50:19;;;;;;;13.05;4.80;;;;;;;-146.25;100.00;52577.03;2078098;28;20086;-69
2024/01/01 01:51:21;;;;;;;9.02;4.05;;;;;;;-146.25;100.00;52597.31;2072888;28;26740;-70
2024/01/01 01:52:23;;;;;;;13.15;4.70;;;;;;;-146.25;100.00;52566.91;2077931;28;24883;-69
2024/01/01 01:53:25;;;;;;;14.40;4.28;;;;;;;-146.25;100.00;52577.03;2080736;28;20034;-69
2024/01/01 01:54:30;;;;;;;11.55;4.30;;;;;;;-146.25;100.00;52550.69;2070735;28;20042;-69
2024/01/01 01:55:32;;;;;;;13.93;4.53;;;;;;;-146.25;100.00;52564.88;2070656;28;20104;-69
2024/01/01 01:56:34;;;;;;;12.88;4.40;;;;;;;-146.25;100.00;52562.84;2063614;28;20129;-69
2024/01/01 01:57:37;;;;;;;12.38;4.22;;;;;;;-146.25;100.00;52542.56;2058796;28;20050;-69
2024/01/01 01:58:40;;;;;;;11.82;4.13;;;;;;;-146.25;100.00;52603.41;2055917;28;20182;-69
2024/01/01 01:59:43;;;;;;;11.90;4.47;;;;;;;-146.25;100.00;52591.25;2055635;28;20974;-69
2024/01/01 02:00:46;;;;;;;15.82;4.68;;;;;;;-146.25;100.00;52601.38;2055517;28;25707;-69
2024/01/01 02:01:49;;;;;;;14.65;4.22;;;;;;;-146.25;100.00;52583.13;2072745;28;20030;-69
2024/01/01 02:02:53;;;;;;;13.07;4.18;;;;;;;-146.25;100.00;52601.38;2079193;28;27387;-69
2024/01/01 02:03:54;;;;;;;11.68;4.47;;;;;;;-146.25;100.00;52601.38;2072012;28;20927;-69
2024/01/01 02:04:58;;;;;;;13.00;4.25;;;;;;;-146.25;100.00;52573.00;2070639;28;29337;-69
2024/01/01 02:06:00;;;;;;;9.93;4.10;;;;;;;-146.25;100.00;52595.28;2071144;28;29597;-69
2024/01/01 02:07:02;;;;;;;12.68;4.30;;;;;;;-146.25;100.00;52581.09;2063299;28;26667;-69
2024/01/01 02:08:06;;;;;;;13.13;4.30;;;;;;;-146.25;100.00;52585.16;2066970;28;21478;-69
2024/01/01 02:09:09;;;;;;;11.95;4.82;;;;;;;-146.25;100.00;52589.22;2080016;28;24987;-69
2024/01/01 02:10:12;;;;;;;12.95;4.25;;;;;;;-146.25;100.00;52591.25;2080963;28;20865;-70
2024/01/01 02:11:14;;;;;;;11.57;4.30;;;;;;;-146.25;100.00;52611.50;2078718;28;30592;-69
2024/01/01 02:12:16;;;;;;;10.73;4.15;;;;;;;-146.25;100.00;52542.56;2075884;28;25052;-69
2024/01/01 02:13:31;;;;;;;13.65;4.45;;;;;;;-146.25;100.00;52591.25;2078113;28;20647;-69
2024/01/01 02:14:36;;;;;;;10.23;4.22;;;;;;;-146.25;100.00;52568.94;2065208;28;24953;-69
2024/01/01 02:15:38;;;;;;;11.85;4.68;;;;;;;-146.25;100.00;52595.28;2076605;28;20030;-68
2024/01/01 02:16:40;;;;;;;10.73;4.40;;;;;;;-146.25;100.00;52583.13;2079662;28;33515;-69
2024/01/01 02:17:42;;;;;;;11.48;3.88;;;;;;;-146.25;100.00;52607.47;2079617;28;28713;-68
2024/01/01 02:18:43;;;;;;;10.95;4.07;;;;;;;-146.25;100.00;52627.75;2080357;28;26195;-69
2024/01/01 02:19:45;;;;;;;10.80;4.25;;;;;;;-146.25;100.00;52591.25;2080278;28;34604;-69
2024/01/01 02:20:47;;;;;;;13.48;3.70;;;;;;;-146.25;100.00;52568.94;2079565;28;27212;-68
2024/01/01 02:21:52;;;;;;;14.27;4.60;;;;;;;-146.25;100.00;52587.19;2080645;28;20913;-69
2024/01/01 02:22:56;;;;;;;9.65;4.00;;;;;;;-146.25;100.00;52562.84;2080136;28;20049;-69
2024/01/01 02:23:58;;;;;;;12.57;4.22;;;;;;;-146.25;100.00;52579.06;2067670;28;25061;-69
2024/01/01 02:25:00;;;;;;;12.38;3.55;;;;;;;-146.25;100.00;52573.00;2070850;28;28032;-69
2024/01/01 02:26:04;;;;;;;12.23;3.95;;;;;;;-146.25;100.00;52579.06;2080412;28;20981;-69
2024/01/01 02:27:06;;;;;;;12.27;3.63;;;;;;;-146.25;100.00;52587.19;2080268;28;25608;-69
2024/01/01 02:28:08;;;;;;;10.13;3.72;;;;;;;-146.25;100.00;52603.41;2080212;28;20113;-69
2024/01/01 02:29:11;;;;;;;14.65;4.03;;;;;;;-146.25;100.00;52593.25;2080545;28;23782;-69
2024/01/01 02:30:15;;;;;;;12.63;4.82;;;;;;;-146.25;100.00;52611.50;2080028;28;26667;-69
2024/01/01 02:31:17;;;;;;;15.07;3.75;;;;;;;-146.25;100.00;52587.19;2076403;28;30680;-68
2024/01/01 02:32:18;;;;;;;10.70;4.03;;;;;;;-146.25;100.00;52599.34;2079527;28;25782;-70
2024/01/01 02:33:21;;;;;;;14.40;4.00;;;;;;;-146.25;100.00;52575.00;2079713;28;20034;-70
2024/01/01 02:34:24;;;;;;;11.73;3.42;;;;;;;-146.25;100.00;52570.97;2079791;28;20877;-70
2024/01/01 02:35:26;;;;;;;12.57;3.47;;;;;;;-146.25;100.00;52587.19;2078917;28;31329;-70
2024/01/01 02:36:39;;;;;;;12.07;3.25;;;;;;;-146.25;100.00;52593.25;2080036;28;20045;-70
2024/01/01 02:37:40;;;;;;;9.50;3.40;;;;;;;-146.25;100.00;52579.06;2072917;28;26433;-69
2024/01/01 02:38:42;;;;;;;13.40;4.15;;;;;;;-146.25;100.00;52603.41;2071529;28;33022;-70
2024/01/01 02:39:44;;;;;;;11.95;3.35;;;;;;;-146.25;100.00;52546.63;2077257;28;27694;-69
2024/01/01 02:40:46;;;;;;;12.30;3.88;;;;;;;-146.25;100.00;52585.16;2079186;28;32971;-70
2024/01/01 02:41:48;;;;;;;11.13;3.83;;;;;;;-146.25;100.00;52579.06;2079120;28;26866;-71
2024/01/01 02:42:49;;;;;;;11.27;3.75;;;;;;;-146.25;100.00;52587.19;2079462;28;20053;-70
2024/01/01 02:43:51;;;;;;;11.00;3.90;;;;;;;-146.25;100.00;52583.13;2079930;28;20168;-70
2024/01/01 02:44:58;;;;;;;10.75;3.92;;;;;;;-146.25;100.00;52556.75;2063407;28;20078;-70
2024/01/01 02:46:00;;;;;;;9.02;3.45;;;;;;;-146.25;100.00;52583.13;2072367;28;24392;-70
2024/01/01 02:47:01;;;;;;;11.77;4.00;;;;;;;-146.25;100.00;52570.97;2087141;28;20773;-70
2024/01/01 02:48:07;;;;;;;13.07;4.00;;;;;;;-146.25;100.00;52601.38;2075129;28;24703;-70
2024/01/01 02:49:11;;;;;;;9.68;3.70;;;;;;;-146.25;100.00;52554.75;2079932;28;26944;-71
2024/01/01 02:50:15;;;;;;;10.55;3.92;;;;;;;-146.25;100.00;52566.91;2079402;28;28657;-70
2024/01/01 02:51:17;;;;;;;11.35;4.30;;;;;;;-146.25;100.00;52538.53;2079070;28;20038;-70
2024/01/01 02:52:18;;;;;;;11.55;3.63;;;;;;;-146.25;100.00;52556.75;2080419;28;27542;-69
2024/01/01 02:53:20;;;;;;;9.27;3.67;;;;;;;-146.25;100.00;52583.13;2080207;28;27146;-69
2024/01/01 02:54:22;;;;;;;11.68;3.83;;;;;;;-146.25;100.00;52568.94;2076968;28;26067;-68
2024/01/01 02:55:24;;;;;;;10.63;4.43;;;;;;;-146.25;100.00;52603.41;2079668;28;25398;-69
2024/01/01 02:56:29;;;;;;;12.77;4.07;;;;;;;-146.25;100.00;52562.84;2080178;28;24281;-69
2024/01/01 02:57:30;;;;;;;10.82;4.18;;;;;;;-146.25;100.00;52575.00;2079981;28;25519;-69
2024/01/01 02:58:32;;;;;;;13.05;4.30;;;;;;;-146.25;100.00;52607.47;2078196;28;33664;-68
2024/01/01 02:59:34;;;;;;;14.75;4.60;;;;;;;-146.25;100.00;52558.78;2075928;28;28989;-69
2024/01/01 03:00:36;;;;;;;11.13;4.50;;;;;;;-146.25;100.00;52566.91;2077895;28;26657;-69
2024/01/01 03:01:40;;;;;;;13.05;4.38;;;;;;;-146.25;100.00;52575.00;2071482;28;30053;-69
2024/01/01 03:02:42;;;;;;;9.30;4.03;;;;;;;-146.25;100.00;52566.91;2078867;28;20050;-69
2024/01/01 03:03:49;;;;;;;11.93;4.55;;;;;;;-146.25;100.00;52599.34;2071649;28;20073;-69
2024/01/01 03:04:51;;;;;;;14.73;4.40;;;;;;;-146.25;100.00;52591.25;2062537;28;23929;-70
2024/01/01 03:05:52;;;;;;;11.50;4.38;;;;;;;-146.25;100.00;52611.50;2078898;28;22505;-68
2024/01/01 03:06:55;;;;;;;13.32;5.38;;;;;;;-146.25;100.00;52591.25;2079114;28;20033;-69
2024/01/01 03:07:56;;;;;;;12.35;4.93;;;;;;;-146.25;100.00;52566.91;2079570;28;31421;-69
2024/01/01 03:08:58;;;;;;;12.68;4.80;;;;;;;-146.25;100.00;52589.22;2079862;28;30032;-69
2024/01/01 03:10:00;;;;;;;14.63;4.97;;;;;;;-146.25;100.00;52570.97;2079991;28;33784;-69
2024/01/01 03:11:03;;;;;;;13.35;5.18;;;;;;;-146.25;100.00;52597.31;2080098;28;31357;-68
2024/01/01 03:12:05;;;;;;;15.27;5.47;;;;;;;-146.25;100.00;52568.94;2079491;28;25469;-69
2024/01/01 03:13:07;;;;;;;11.77;5.22;;;;;;;-146.25;100.00;52570.97;2079495;28;29822;-69
2024/01/01 03:14:09;;;;;;;14.30;5.72;;;;;;;-146.25;100.00;52597.31;2080206;28;20042;-70
2024/01/01 03:15:11;;;;;;;13.95;5.43;;;;;;;-146.25;100.00;52583.13;2074970;28;20046;-70
2024/01/01 03:16:14;;;;;;;17.98;6.38;;;;;;;-146.25;100.00;52583.13;2080012;28;31480;-69
2024/01/01 03:17:17;;;;;;;16.90;6.32;;;;;;;-146.25;100.00;52599.34;2076852;28;22808;-70
2024/01/01 03:18:19;;;;;;;14.13;5.95;;;;;;;-146.25;100.00;52587.19;2071868;28;20957;-70
2024/01/01 03:19:21;;;;;;;16.00;5.55;;;;;;;-146.25;100.00;52591.25;2074959;28;26269;-70
2024/01/01 03:20:25;;;;;;;14.05;5.95;;;;;;;-146.25;100.00;52548.66;2079777;28;32653;-70
2024/01/01 03:21:29;;;;;;;15.45;6.82;;;;;;;-146.25;100.00;52587.19;2079804;28;20822;-69
2024/01/01 03:22:31;;;;;;;14.50;6.25;;;;;;;-146.25;100.00;52623.69;2079376;28;29236;-70
2024/01/01 03:23:35;;;;;;;14.85;6.57;;;;;;;-146.25;100.00;52573.00;2079709;28;20684;-70
2024/01/01 03:24:37;;;;;;;14.70;6.68;;;;;;;-146.25;100.00;52597.31;2071450;28;30375;-69
2024/01/01 03:25:41;;;;;;;14.45;6.05;;;;;;;-146.25;100.00;52566.91;2076683;28;20046;-70
2024/01/01 03:26:43;;;;;;;19.13;6.90;;;;;;;-146.25;100.00;52589.22;2079892;28;20041;-70
2024/01/01 03:27:45;;;;;;;16.30;7.55;;;;;;;-146.25;100.00;52564.88;2080764;28;25748;-70
2024/01/01 03:28:49;;;;;;;18.38;7.07;;;;;;;-146.25;100.00;52558.78;2078707;28;28547;-69
2024/01/01 03:29:51;;;;;;;13.90;6.78;;;;;;;-146.25;100.00;52566.91;2074378;28;20049;-70
2024/01/01 03:30:53;;;;;;;14.63;6.95;;;;;;;-146.25;100.00;52587.19;2079654;28;26829;-69
2024/01/01 03:31:55;;;;;;;17.98;7.60;;;;;;;-146.25;100.00;52611.50;2078899;28;30957;-69
2024/01/01 03:32:59;;;;;;;13.38;6.82;;;;;;;-146.25;100.00;52568.94;2079450;28;20085;-70
2024/01/01 03:34:01;;;;;;;22.92;7.30;;;;;;;-146.25;100.00;52566.91;2081005;28;31066;-69
2024/01/01 03:35:03;;;;;;;17.35;7.85;;;;;;;-146.25;100.00;52603.41;2084052;28;20168;-70
2024/01/01 03:36:05;;;;;;;17.25;7.80;;;;;;;-146.25;100.00;52570.97;2080680;28;20127;-69
2024/01/01 03:37:07;;;;;;;15.77;7.30;;;;;;;-146.25;100.00;52605.44;2079228;28;28972;-70
2024/01/01 03:38:09;;;;;;;17.65;7.63;;;;;;;-146.25;100.00;52583.13;2079592;28;20164;-69
2024/01/01 03:39:11;;;;;;;18.50;7.45;;;;;;;-146.25;100.00;52603.41;2078735;28;33262;-68
2024/01/01 03:40:14;;;;;;;13.23;6.90;;;;;;;-146.25;100.00;52605.44;2079127;28;20045;-69
2024/01/01 03:41:15;;;;;;;16.98;7.57;;;;;;;-146.25;100.00;52564.88;2080306;28;27880;-70
2024/01/01 03:42:19;;;;;;;16.92;7.60;;;;;;;-146.25;100.00;52554.75;2078686;28;28822;-69
2024/01/01 03:43:22;;;;;;;14.98;7.60;;;;;;;-146.25;100.00;52603.41;2078285;28;23631;-70
2024/01/01 03:44:23;;;;;;;17.83;7.50;;;;;;;-146.25;100.00;52562.84;2079451;28;23072;-70
2024/01/01 03:45:25;;;;;;;18.25;8.23;;;;;;;-146.25;100.00;52570.97;2079455;28;28761;-70
2024/01/01 03:46:27;;;;;;;16.27;7.63;;;;;;;-146.25;100.00;52603.41;2079513;28;20774;-69
2024/01/01 03:47:29;;;;;;;19.30;8.48;;;;;;;-146.25;100.00;52558.78;2079101;28;29813;-70
2024/01/01 03:48:30;;;;;;;19.33;7.63;;;;;;;-146.25;100.00;52562.84;2079294;28;20105;-70
2024/01/01 03:49:32;;;;;;;17.50;8.73;;;;;;;-146.25;100.00;52573.00;2079786;28;28593;-69
2024/01/01 03:50:37;;;;;;;20.40;8.07;;;;;;;-146.25;100.00;52577.03;2079001;28;24038;-69
2024/01/01 03:51:38;;;;;;;16.00;8.00;;;;;;;-146.25;100.00;52595.28;2080341;28;20034;-69
2024/01/01 03:52:40;;;;;;;15.77;7.57;;;;;;;-146.25;100.00;52595.28;2078907;28;29129;-69
2024/01/01 03:53:43;;;;;;;17.58;7.43;;;;;;;-146.25;100.00;52605.44;2079913;28;20151;-70
2024/01/01 03:54:47;;;;;;;18.15;7.30;;;;;;;-146.25;100.00;52566.91;2084754;28;20794;-70
2024/01/01 03:55:51;;;;;;;14.95;7.40;;;;;;;-146.25;100.00;52564.88;2079416;28;20483;-69
2024/01/01 03:56:54;;;;;;;23.27;7.60;;;;;;;-146.25;100.00;52577.03;2080108;28;26371;-69
2024/01/01 03:57:56;;;;;;;16.35;7.63;;;;;;;-146.25;100.00;52560.81;2080078;28;20042;-69
2024/01/01 03:58:58;;;;;;;17.73;7.15;;;;;;;-146.25;100.00;52607.47;2080787;28;20089;-70
2024/01/01 04:00:00;;;;;;;15.93;7.88;;;;;;;-146.25;100.00;52568.94;2078680;28;30819;-70
2024/01/01 04:01:02;;;;;;;17.35;8.77;;;;;;;-146.25;100.00;52556.75;2071315;28;20042;-70
2024/01/01 04:02:09;;;;;;;20.42;8.25;;;;;;;-146.25;100.00;52583.13;2070776;28;31220;-69
2024/01/01 04:03:12;;;;;;;18.33;8.45;;;;;;;-146.25;100.00;52615.56;2070794;28;20058;-69
2024/01/01 04:04:14;;;;;;;15.88;7.28;;;;;;;-146.25;100.00;52566.91;2071696;28;31970;-68
2024/01/01 04:05:18;;;;;;;19.15;8.50;;;;;;;-146.25;100.00;52607.47;2078624;28;29919;-68
2024/01/01 04:06:20;;;;;;;18.13;8.15;;;;;;;-146.25;100.00;52558.78;2071526;28;21150;-69
2024/01/01 04:07:21;;;;;;;15.80;7.70;;;;;;;-146.25;100.00;52615.56;2071286;28;20069;-69
2024/01/01 04:08:23;;;;;;;20.92;8.15;;;;;;;-146.25;100.00;52587.19;2071363;28;25117;-69
2024/01/01 04:09:25;;;;;;;17.08;7.93;;;;;;;-146.25;100.00;52577.03;2071106;28;24538;-69
2024/01/01 04:10:27;;;;;;;16.27;7.20;;;;;;;-146.25;100.00;52597.31;2078710;28;21057;-70
2024/01/01 04:11:29;;;;;;;15.65;7.80;;;;;;;-146.25;100.00;52570.97;2071026;28;20919;-70
2024/01/01 04:12:32;;;;;;;18.10;7.93;;;;;;;-146.25;100.00;52573.00;2075367;28;25820;-69
2024/01/01 04:13:34;;;;;;;17.67;7.25;;;;;;;-146.25;100.00;52570.97;2086586;28;29338;-69
2024/01/01 04:14:36;;;;;;;15.38;6.90;;;;;;;-146.25;100.00;52589.22;2078767;28;33455;-69
2024/01/01 04:15:38;;;;;;;13.93;6.95;;;;;;;-146.25;100.00;52579.06;2079586;28;32738;-69
2024/01/01 04:16:40;;;;;;;12.57;6.40;;;;;;;-146.25;100.00;52583.13;2076985;28;20046;-70
2024/01/01 04:17:43;;;;;;;13.63;6.55;;;;;;;-146.25;100.00;52581.09;2080704;28;20957;-69
2024/01/01 04:18:47;;;;;;;13.43;6.25;;;;;;;-146.25;100.00;52597.31;2076687;28;36276;-69
2024/01/01 04:19:48;;;;;;;14.25;5.50;;;;;;;-146.25;100.00;52564.88;2072524;28;34614;-69
2024/01/01 04:20:50;;;;;;;11.57;5.47;;;;;;;-146.25;100.00;52591.25;2081175;28;35984;-69
2024/01/01 04:21:55;;;;;;;14.27;5.85;;;;;;;-146.25;100.00;52542.56;2086513;28;20857;-69
2024/01/01 04:22:56;;;;;;;13.75;5.47;;;;;;;-146.25;100.00;52566.91;2080952;28;34124;-70
2024/01/01 04:23:58;;;;;;;15.10;5.82;;;;;;;-146.25;100.00;52544.59;2071751;28;35610;-69
2024/01/01 04:25:00;;;;;;;14.10;5.75;;;;;;;-146.25;100.00;52575.00;2073331;28;34447;-69
2024/01/01 04:26:01;;;;;;;11.15;5.32;;;;;;;-146.25;100.00;52581.09;2080794;28;35884;-68
2024/01/01 04:27:03;;;;;;;11.98;5.43;;;;;;;-146.25;100.00;52611.50;2080839;28;20957;-69
2024/01/01 04:28:06;;;;;;;13.68;5.38;;;;;;;-146.25;100.00;52558.78;2079884;28;34886;-69
2024/01/01 04:29:07;;;;;;;11.95;4.93;;;;;;;-146.25;100.00;52591.25;2081084;28;33509;-68
2024/01/01 04:30:10;;;;;;;16.27;5.32;;;;;;;-146.25;100.00;52566.91;2079371;28;33837;-69
2024/01/01 04:31:12;;;;;;;11.15;5.00;;;;;;;-146.25;100.00;52579.06;2079629;28;34942;-68
2024/01/01 04:32:14;;;;;;;11.68;4.78;;;;;;;-146.25;100.00;52581.09;2074283;28;33585;-69
2024/01/01 04:33:18;;;;;;;13.07;4.90;;;;;;;-146.25;100.00;52575.00;2078558;28;33565;-69
2024/01/01 04:34:20;;;;;;;12.43;4.32;;;;;;;-146.25;100.00;52575.00;2079504;28;36168;-70
2024/01/01 04:35:22;;;;;;;14.85;4.90;;;;;;;-146.25;100.00;52595.28;2080722;28;20035;-69
2024/01/01 04:36:24;;;;;;;13.10;4.57;;;;;;;-146.25;100.00;52583.13;2079677;28;34679;-70
2024/01/01 04:37:26;;;;;;;9.98;3.75;;;;;;;-146.25;100.00;52564.88;2080948;28;30456;-71
2024/01/01 04:38:28;;;;;;;10.38;3.38;;;;;;;-146.25;100.00;52587.19;2081114;28;35257;-71
2024/01/01 04:39:30;;;;;;;13.07;4.40;;;;;;;-146.25;100.00;52570.97;2079510;28;36829;-70
2024/01/01 04:40:32;;;;;;;6.20;2.90;;;;;;;-146.25;100.00;52564.88;2080018;28;35298;-71
2024/01/01 04:41:34;;;;;;;8.88;3.53;;;;;;;-146.25;100.00;52579.06;2080544;28;33763;-71